Weather at Mielec Airfield

Public forecast

Using degrees Celsius for public forecast. Weather courtesy of forecast.io.

Closest aviation weather report (METAR) to Mielec Airfield

Closest report is Rzeszów-Jasionka Airport, 25.1 nm (46.5 km) ESE.

2024/05/27 20:30 (retrieved 35 minutes ago)

EPRZ 272030Z 07005KT CAVOK 17/06 Q1019

Closest aviation forecast (TAF) to Mielec Airfield

Closest forecast is Rzeszów-Jasionka Airport, 25.1 nm (46.5 km) ESE.

2024/05/27 18:33 (retrieved 3 hours ago)

TAF EPRZ 271730Z 2718/2818 11010KT CAVOK BECMG 2718/2721 VRB02KT BECMG 2807/2810 09010KT BECMG 2816/2818 VRB02KT